createdAt,value
2019-04-07T00:00:27.830Z,30.8
2019-04-07T00:02:29.217Z,31.7
2019-04-07T00:04:30.729Z,32
2019-04-07T00:06:32.059Z,32.9
2019-04-07T00:08:33.969Z,33.8
2019-04-07T00:10:35.644Z,33.5
2019-04-07T00:12:37.067Z,33.2
2019-04-07T00:14:39.190Z,34.6
2019-04-07T00:16:40.614Z,32.8
2019-04-07T00:18:42.044Z,31.6
2019-04-07T00:20:43.886Z,31
2019-04-07T00:22:45.388Z,31.7
2019-04-07T00:24:46.810Z,33
2019-04-07T00:26:48.797Z,32.3
2019-04-07T00:28:50.202Z,32.3
2019-04-07T00:30:51.636Z,33.2
2019-04-07T00:32:53.058Z,31.5
2019-04-07T00:34:54.453Z,34.1
2019-04-07T00:36:55.834Z,33.1
2019-04-07T00:38:57.229Z,34.1
2019-04-07T00:40:59.341Z,33.7
2019-04-07T00:43:00.891Z,33.3
2019-04-07T00:45:02.968Z,31.5
2019-04-07T00:47:05.311Z,33.1
2019-04-07T00:49:06.689Z,31
2019-04-07T00:51:08.097Z,33.2
2019-04-07T00:53:09.916Z,32.2
2019-04-07T00:55:11.707Z,33.2
2019-04-07T00:57:13.097Z,32
2019-04-07T00:59:14.525Z,33.4
2019-04-07T01:01:16.524Z,32.4
2019-04-07T01:03:18.321Z,32.5
2019-04-07T01:05:19.705Z,32.3
2019-04-07T01:07:21.127Z,33
2019-04-07T01:09:22.516Z,32.6
2019-04-07T01:11:24.355Z,32.8
2019-04-07T01:13:26.334Z,32.5
2019-04-07T01:15:27.969Z,33.8
2019-04-07T01:17:29.399Z,34.1
2019-04-07T01:19:30.730Z,32.2
2019-04-07T01:21:33.055Z,34.7
2019-04-07T01:23:34.851Z,33.9
2019-04-07T01:25:36.806Z,32.8
2019-04-07T01:27:38.093Z,33.5
2019-04-07T01:29:40.044Z,34.4
2019-04-07T01:31:41.451Z,35
2019-04-07T01:33:43.218Z,34.8
2019-04-07T01:35:49.501Z,36.4
2019-04-07T01:37:51.860Z,34.7
2019-04-07T01:39:53.792Z,36.1
2019-04-07T01:41:55.151Z,35
2019-04-07T01:43:57.435Z,35.8
2019-04-07T01:45:58.905Z,35.5
2019-04-07T01:48:00.806Z,35.7
2019-04-07T01:50:02.305Z,38.3
2019-04-07T01:52:04.298Z,39.1
2019-04-07T01:54:06.302Z,40.6
2019-04-07T01:56:07.835Z,37
2019-04-07T01:58:09.916Z,38.5
2019-04-07T02:00:11.271Z,38.3
2019-04-07T02:02:12.671Z,39
2019-04-07T02:04:13.923Z,39.6
2019-04-07T02:06:15.631Z,39.7
2019-04-07T02:08:17.132Z,40
2019-04-07T02:10:18.917Z,37.3
2019-04-07T02:12:20.270Z,40.4
2019-04-07T02:14:22.513Z,40.9
2019-04-07T02:16:24.660Z,41
2019-04-07T02:18:26.211Z,40.6
2019-04-07T02:20:28.024Z,39
2019-04-07T02:22:30.018Z,39.4
2019-04-07T02:24:31.395Z,36.9
2019-04-07T02:26:33.292Z,38.7
2019-04-07T02:28:35.752Z,39.1
2019-04-07T02:30:37.467Z,37.5
2019-04-07T02:32:39.052Z,37.2
2019-04-07T02:34:42.893Z,35.6
2019-04-07T02:36:45.319Z,37.2
2019-04-07T02:38:46.761Z,37.2
2019-04-07T02:40:48.841Z,37.2
2019-04-07T02:42:50.410Z,36.4
2019-04-07T02:44:52.583Z,36.8
2019-04-07T02:46:54.833Z,36.4
2019-04-07T02:48:56.742Z,35.6
2019-04-07T02:50:59.739Z,37.7
2019-04-07T02:53:01.887Z,36
2019-04-07T02:55:04.630Z,38.4
2019-04-07T02:57:06.512Z,37.3
2019-04-07T02:59:08.001Z,36.2
2019-04-07T03:01:09.754Z,37
2019-04-07T03:03:11.152Z,36
2019-04-07T03:05:13.870Z,38.4
2019-04-07T03:07:15.303Z,36.5
2019-04-07T03:09:16.734Z,36.8
2019-04-07T03:11:18.281Z,35.6
2019-04-07T03:13:19.644Z,34.7
2019-04-07T03:15:21.073Z,36.4
2019-04-07T03:17:23.398Z,34.8
2019-04-07T03:19:25.588Z,35.4
2019-04-07T03:21:26.932Z,36.8
2019-04-07T03:23:28.836Z,34.9
2019-04-07T03:25:30.180Z,35.9
2019-04-07T03:27:31.574Z,36.6
2019-04-07T03:29:33.430Z,37.6
2019-04-07T03:31:37.047Z,36.5
2019-04-07T03:33:43.894Z,36.5
2019-04-07T03:35:52.958Z,37.3
2019-04-07T03:37:54.933Z,37.7
2019-04-07T03:39:57.097Z,36.2
2019-04-07T03:41:59.442Z,36.2
2019-04-07T03:44:01.470Z,34.9
2019-04-07T03:46:03.816Z,35.7
2019-04-07T03:48:07.122Z,35.9
2019-04-07T03:50:10.283Z,34.8
2019-04-07T03:52:11.944Z,35.9
2019-04-07T03:54:15.627Z,35.6
2019-04-07T03:56:18.180Z,36.5
2019-04-07T03:58:19.749Z,36.1
2019-04-07T04:00:21.146Z,35
2019-04-07T04:02:22.575Z,34.3
2019-04-07T04:04:24.455Z,35.2
2019-04-07T04:06:26.053Z,35
2019-04-07T04:08:28.476Z,34.8
2019-04-07T04:10:30.239Z,33.4
2019-04-07T04:12:31.931Z,34.6
2019-04-07T04:14:34.671Z,35.7
2019-04-07T04:16:36.196Z,34.2
2019-04-07T04:18:37.753Z,33.8
2019-04-07T04:20:39.132Z,35.3
2019-04-07T04:22:40.560Z,34.5
2019-04-07T04:24:43.466Z,32.4
2019-04-07T04:26:44.969Z,36.3
2019-04-07T04:28:46.351Z,34.2
2019-04-07T04:30:48.459Z,34.3
2019-04-07T04:32:49.840Z,37.6
2019-04-07T04:34:51.390Z,35.6
2019-04-07T04:36:54.474Z,36.2
2019-04-07T04:38:55.879Z,36.6
2019-04-07T04:40:58.273Z,34.6
2019-04-07T04:42:59.708Z,37.1
2019-04-07T04:45:02.699Z,36.5
2019-04-07T04:47:04.952Z,36.9
2019-04-07T04:49:06.812Z,34
2019-04-07T04:51:09.519Z,36.8
2019-04-07T04:53:11.040Z,35.1
2019-04-07T04:55:13.352Z,33.5
2019-04-07T04:57:14.773Z,35.1
2019-04-07T04:59:16.199Z,34.7
2019-04-07T05:01:18.437Z,35.8
2019-04-07T05:03:19.972Z,35.8
2019-04-07T05:05:22.145Z,34.8
2019-04-07T05:07:24.590Z,36
2019-04-07T05:09:46.053Z,30.4
2019-04-07T05:11:48.622Z,33.3
2019-04-07T05:13:50.230Z,34.6
2019-04-07T05:15:51.594Z,32.9
2019-04-07T05:17:53.631Z,32.6
2019-04-07T05:19:55.244Z,33
2019-04-07T05:21:57.161Z,32.3
2019-04-07T05:23:59.241Z,32
2019-04-07T05:26:00.550Z,33
2019-04-07T05:28:01.979Z,29.9
2019-04-07T05:30:03.555Z,34.6
2019-04-07T05:32:04.871Z,36.3
2019-04-07T05:34:06.672Z,34.3
2019-04-07T05:36:08.874Z,33.8
2019-04-07T05:38:10.219Z,34.2
2019-04-07T05:40:11.551Z,35
2019-04-07T05:42:13.537Z,31.2
2019-04-07T05:44:15.119Z,37.2
2019-04-07T05:46:17.788Z,37.7
2019-04-07T05:48:20.611Z,38
2019-04-07T05:50:22.381Z,40.3
2019-04-07T05:52:24.020Z,41.3
2019-04-07T05:54:25.429Z,40.8
2019-04-07T05:56:28.496Z,34.6
2019-04-07T05:58:29.913Z,40.2
2019-04-07T06:00:31.337Z,39.5
2019-04-07T06:02:34.178Z,34.7
2019-04-07T06:04:36.153Z,38.3
2019-04-07T06:06:41.816Z,38.4
2019-04-07T06:08:48.336Z,39.5
2019-04-07T06:10:50.128Z,35.6
2019-04-07T06:12:51.518Z,37
2019-04-07T06:14:52.861Z,35.4
2019-04-07T06:16:55.941Z,39.2
2019-04-07T06:18:57.837Z,39
2019-04-07T06:20:59.541Z,35.9
2019-04-07T06:23:02.086Z,35.3
2019-04-07T06:25:05.887Z,41.1
2019-04-07T06:27:08.892Z,42
2019-04-07T06:29:10.619Z,43.9
2019-04-07T06:31:11.960Z,37.3
2019-04-07T06:33:14.071Z,37.3
2019-04-07T06:35:15.987Z,37.6
2019-04-07T06:37:17.880Z,43.4
2019-04-07T06:39:20.140Z,35.3
2019-04-07T06:41:21.857Z,38
2019-04-07T06:43:23.190Z,38.6
2019-04-07T06:45:24.602Z,41.5
2019-04-07T06:47:26.070Z,41.2
2019-04-07T06:49:29.592Z,39.9
2019-04-07T06:51:31.200Z,42.1
2019-04-07T06:53:32.763Z,41
2019-04-07T06:55:34.211Z,40.7
2019-04-07T06:57:38.367Z,43.7
2019-04-07T06:59:40.627Z,39.6
2019-04-07T07:01:42.839Z,41.3
2019-04-07T07:03:44.198Z,41.7
2019-04-07T07:05:46.262Z,38.9
2019-04-07T07:07:49.714Z,39.5
2019-04-07T07:09:52.122Z,37.5
2019-04-07T07:11:54.070Z,43
2019-04-07T07:13:55.468Z,38
2019-04-07T07:15:57.436Z,39.2
2019-04-07T07:18:00.049Z,37.9
2019-04-07T07:20:05.609Z,39.4
2019-04-07T07:22:15.570Z,37
2019-04-07T07:24:25.353Z,38.8
2019-04-07T07:26:28.478Z,34.6
2019-04-07T07:28:29.852Z,39.3
2019-04-07T07:30:31.640Z,32.1
2019-04-07T07:32:37.294Z,33.9
2019-04-07T07:34:42.422Z,35.8
2019-04-07T07:36:48.541Z,34.4
2019-04-07T07:39:01.637Z,33.9
2019-04-07T07:41:04.799Z,31.9
2019-04-07T07:43:06.609Z,31.7
2019-04-07T07:45:13.124Z,30.5
2019-04-07T07:47:15.192Z,32.6
2019-04-07T07:49:16.893Z,31.6
2019-04-07T07:51:18.200Z,31
2019-04-07T07:53:26.282Z,30.1
2019-04-07T07:55:37.086Z,28.2
2019-04-07T07:57:39.041Z,28
2019-04-07T07:59:40.534Z,29.7
2019-04-07T08:01:46.848Z,26.4
2019-04-07T08:03:54.621Z,26.9
2019-04-07T08:05:57.692Z,25.6
2019-04-07T08:07:59.439Z,23.9
2019-04-07T08:10:01.564Z,25.1
2019-04-07T08:12:03.795Z,19.3
2019-04-07T08:14:05.139Z,16.5
2019-04-07T08:16:06.544Z,15.5
2019-04-07T08:18:09.675Z,15.6
2019-04-07T08:20:13.053Z,13.6
2019-04-07T08:22:32.380Z,12.7
2019-04-07T08:24:35.216Z,12.9
2019-04-07T08:26:36.598Z,12.4
2019-04-07T08:28:38.262Z,11.6
2019-04-07T08:30:47.427Z,11.6
2019-04-07T08:32:49.006Z,11.6
2019-04-07T08:34:50.615Z,10.9
2019-04-07T08:36:52.051Z,10.5
2019-04-07T08:38:57.016Z,9.2
2019-04-07T08:40:58.760Z,8.7
2019-04-07T08:43:01.221Z,9.7
2019-04-07T08:45:03.564Z,9.2
2019-04-07T08:47:04.916Z,9.1
2019-04-07T08:49:06.626Z,8.7
2019-04-07T08:51:08.662Z,8.1
2019-04-07T08:53:13.871Z,8
2019-04-07T08:55:15.996Z,8.1
2019-04-07T08:57:17.353Z,7.9
2019-04-07T08:59:19.584Z,8.3
2019-04-07T09:01:22.062Z,8.2
2019-04-07T09:03:23.463Z,7.9
2019-04-07T09:05:30.837Z,8.3
2019-04-07T09:07:34.951Z,8.5
2019-04-07T09:09:45.074Z,8.3
2019-04-07T09:11:48.135Z,7.8
2019-04-07T09:13:49.435Z,7.7
2019-04-07T09:15:50.802Z,7.6
2019-04-07T09:17:52.506Z,8.7
2019-04-07T09:19:54.887Z,7.7
2019-04-07T09:21:57.391Z,8.1
2019-04-07T09:23:59.317Z,8.8
2019-04-07T09:26:01.657Z,7.5
2019-04-07T09:28:03.305Z,7.2
2019-04-07T09:30:09.689Z,8.1
2019-04-07T09:32:12.046Z,8.1
2019-04-07T09:34:13.680Z,7.2
2019-04-07T09:36:15.117Z,7
2019-04-07T09:38:16.641Z,7.7
2019-04-07T09:40:18.633Z,8
2019-04-07T09:42:25.744Z,7.6
2019-04-07T09:44:27.902Z,7.4
2019-04-07T09:46:30.014Z,7.3
2019-04-07T09:48:32.171Z,7
2019-04-07T09:50:33.456Z,7.8
2019-04-07T09:52:34.910Z,7.5
2019-04-07T09:54:36.261Z,6.9
2019-04-07T09:56:37.946Z,7.5
2019-04-07T09:58:44.545Z,6.7
2019-04-07T10:00:47.510Z,6.4
2019-04-07T10:02:49.210Z,5.7
2019-04-07T10:04:50.604Z,6.6
2019-04-07T10:06:52.034Z,6.2
2019-04-07T10:08:53.475Z,9.2
2019-04-07T10:10:54.906Z,7.5
2019-04-07T10:12:56.689Z,7.5
2019-04-07T10:14:59.794Z,7.6
2019-04-07T10:17:01.258Z,7
2019-04-07T10:19:03.199Z,9.6
2019-04-07T10:21:05.447Z,7.7
2019-04-07T10:23:07.965Z,7.9
2019-04-07T10:25:09.438Z,8.4
2019-04-07T10:27:10.942Z,7.2
2019-04-07T10:29:12.344Z,8.8
2019-04-07T10:31:14.663Z,9.3
2019-04-07T10:33:16.986Z,8.9
2019-04-07T10:35:19.110Z,8.9
2019-04-07T10:37:20.986Z,9.4
2019-04-07T10:39:23.071Z,7.9
2019-04-07T10:41:24.499Z,8.2
2019-04-07T10:43:26.263Z,7.5
2019-04-07T10:45:28.496Z,7.7
2019-04-07T10:47:30.393Z,7.8
2019-04-07T10:49:31.782Z,8.2
2019-04-07T10:51:33.209Z,7.3
2019-04-07T10:53:35.495Z,8
2019-04-07T10:55:38.103Z,8.5
2019-04-07T10:57:39.544Z,7.6
2019-04-07T10:59:40.990Z,8.6
2019-04-07T11:01:42.420Z,7.4
2019-04-07T11:03:44.670Z,8
2019-04-07T11:05:46.711Z,8.1
2019-04-07T11:07:48.364Z,7.8
2019-04-07T11:09:49.802Z,7.5
2019-04-07T11:11:51.319Z,7.7
2019-04-07T11:13:53.520Z,7.5
2019-04-07T11:15:55.289Z,7.8
2019-04-07T11:17:57.143Z,7
2019-04-07T11:19:59.163Z,7.6
2019-04-07T11:22:01.050Z,8
2019-04-07T11:24:04.022Z,6.8
2019-04-07T11:26:05.483Z,7.7
2019-04-07T11:28:06.834Z,7.5
2019-04-07T11:30:09.015Z,8.4
2019-04-07T11:32:12.088Z,8
2019-04-07T11:34:14.135Z,7.5
2019-04-07T11:36:21.354Z,8.2
2019-04-07T11:38:23.245Z,8
2019-04-07T11:40:24.640Z,7.9
2019-04-07T11:42:25.991Z,7.8
2019-04-07T11:44:28.096Z,8.5
2019-04-07T11:46:30.306Z,7.1
2019-04-07T11:48:31.998Z,7.8
2019-04-07T11:50:34.389Z,8
2019-04-07T11:52:36.596Z,8.2
2019-04-07T11:54:38.199Z,8.4
2019-04-07T11:56:40.328Z,8.1
2019-04-07T11:58:41.937Z,8.2
2019-04-07T12:00:43.413Z,8.4
2019-04-07T12:02:45.566Z,9.1
2019-04-07T12:04:47.691Z,7.9
2019-04-07T12:06:49.935Z,9.1
2019-04-07T12:08:51.381Z,8.5
2019-04-07T12:11:02.560Z,8.5
2019-04-07T12:13:06.172Z,8.2
2019-04-07T12:15:08.469Z,7.8
2019-04-07T12:17:13.759Z,8.7
2019-04-07T12:19:16.359Z,9
2019-04-07T12:21:25.256Z,9.2
2019-04-07T12:23:28.604Z,9.2
2019-04-07T12:25:34.437Z,8.2
2019-04-07T12:27:36.009Z,9
2019-04-07T12:29:37.414Z,8.9
2019-04-07T12:31:39.220Z,8.8
2019-04-07T12:33:40.609Z,8.7
2019-04-07T12:35:43.027Z,7.7
2019-04-07T12:37:44.687Z,8.4
2019-04-07T12:39:50.727Z,8.3
2019-04-07T12:41:57.048Z,7.8
2019-04-07T12:44:00.335Z,8.9
2019-04-07T12:46:03.405Z,7.7
2019-04-07T12:48:06.011Z,8.3
2019-04-07T12:50:07.473Z,8.9
2019-04-07T12:52:09.808Z,8.3
2019-04-07T12:54:11.884Z,8.4
2019-04-07T12:56:13.506Z,7.9
2019-04-07T12:58:14.998Z,8.5
2019-04-07T13:00:16.875Z,8.1
2019-04-07T13:02:21.072Z,8.3
2019-04-07T13:04:23.408Z,8.8
2019-04-07T13:06:24.851Z,7.9
2019-04-07T13:08:26.287Z,8.7
2019-04-07T13:10:28.139Z,8.2
2019-04-07T13:12:29.504Z,8.6
2019-04-07T13:14:30.961Z,8.7
2019-04-07T13:16:32.397Z,9
2019-04-07T13:18:38.945Z,8.7
2019-04-07T13:20:40.831Z,8.9
2019-04-07T13:22:42.290Z,8.7
2019-04-07T13:24:48.409Z,8.9
2019-04-07T13:26:50.206Z,9
2019-04-07T13:28:51.569Z,8.4
2019-04-07T13:30:53.105Z,9.2
2019-04-07T13:33:00.673Z,10
2019-04-07T13:35:03.049Z,8.4
2019-04-07T13:37:04.702Z,8.9
2019-04-07T13:39:06.732Z,8.6
2019-04-07T13:41:08.460Z,8.9
2019-04-07T13:43:09.948Z,9.1
2019-04-07T13:45:15.426Z,8.7
2019-04-07T13:47:18.072Z,10.1
2019-04-07T13:49:27.336Z,9.5
2019-04-07T13:51:30.167Z,8.8
2019-04-07T13:53:32.733Z,8.5
2019-04-07T13:55:41.600Z,8.7
2019-04-07T13:57:44.051Z,8.6
2019-04-07T13:59:45.454Z,8.5
2019-04-07T14:01:53.199Z,9
2019-04-07T14:03:59.003Z,8.2
2019-04-07T14:06:01.265Z,10
2019-04-07T14:08:02.611Z,10.5
2019-04-07T14:10:05.700Z,10.8
2019-04-07T14:12:12.798Z,10.8
2019-04-07T14:14:15.814Z,10.9
2019-04-07T14:16:17.222Z,9.6
2019-04-07T14:18:19.202Z,10.3
2019-04-07T14:20:21.606Z,10
2019-04-07T14:22:23.060Z,9.6
2019-04-07T14:24:25.219Z,9.2
2019-04-07T14:26:26.962Z,9.7
2019-04-07T14:28:28.764Z,10.4
2019-04-07T14:30:30.159Z,10.4
2019-04-07T14:32:31.611Z,10
2019-04-07T14:34:37.006Z,10.7
2019-04-07T14:36:38.701Z,12.1
2019-04-07T14:38:41.001Z,11.2
2019-04-07T14:40:43.551Z,11
2019-04-07T14:42:44.964Z,10.5
2019-04-07T14:44:46.855Z,10.9
2019-04-07T14:46:49.065Z,11.2
2019-04-07T14:48:52.308Z,11.9
2019-04-07T14:50:53.879Z,11.4
2019-04-07T14:52:55.235Z,12.2
2019-04-07T14:54:59.902Z,11
2019-04-07T14:57:02.229Z,11.7
2019-04-07T14:59:04.162Z,10.9
2019-04-07T15:01:08.434Z,11.3
2019-04-07T15:03:09.858Z,11
2019-04-07T15:05:11.529Z,14
2019-04-07T15:07:12.889Z,11.6
2019-04-07T15:09:14.240Z,11.4
2019-04-07T15:11:17.569Z,11.6
2019-04-07T15:13:25.665Z,11.7
2019-04-07T15:15:29.286Z,11.4
2019-04-07T15:17:30.683Z,11.5
2019-04-07T15:19:32.069Z,11.7
2019-04-07T15:21:33.489Z,11.7
2019-04-07T15:23:34.999Z,11.4
2019-04-07T15:25:42.838Z,11.1
2019-04-07T15:27:45.718Z,11.5
2019-04-07T15:29:47.310Z,12.3
2019-04-07T15:31:51.876Z,11.8
2019-04-07T15:33:53.594Z,11.6
2019-04-07T15:35:54.939Z,11.9
2019-04-07T15:37:57.172Z,11.8
2019-04-07T15:40:04.765Z,11.5
2019-04-07T15:42:10.618Z,12
2019-04-07T15:44:15.736Z,11.5
2019-04-07T15:46:19.717Z,11.2
2019-04-07T15:48:25.865Z,10.9
2019-04-07T15:50:30.614Z,11.1
2019-04-07T15:52:32.892Z,11
2019-04-07T15:54:35.104Z,10.2
2019-04-07T15:56:37.726Z,10.4
2019-04-07T15:58:39.842Z,11.1
2019-04-07T16:00:42.025Z,10.5
2019-04-07T16:02:44.535Z,10.3
2019-04-07T16:04:45.917Z,9.8
2019-04-07T16:06:50.678Z,10.3
2019-04-07T16:08:53.285Z,10.1
2019-04-07T16:10:55.812Z,10.3
2019-04-07T16:12:59.759Z,10.5
2019-04-07T16:15:02.232Z,10.3
2019-04-07T16:17:07.349Z,10.4
2019-04-07T16:19:17.963Z,9.9
2019-04-07T16:21:21.270Z,9.8
2019-04-07T16:23:22.690Z,11.7
2019-04-07T16:25:29.028Z,10.3
2019-04-07T16:27:30.594Z,10.7
2019-04-07T16:33:06.387Z,12.1
2019-04-07T16:35:14.076Z,10.5
2019-04-07T16:37:16.321Z,13.1
2019-04-07T16:39:17.870Z,11.3
2019-04-07T16:41:19.390Z,11.8
2019-04-07T16:43:20.772Z,11.7
2019-04-07T16:45:22.449Z,11.7
2019-04-07T16:47:33.766Z,12.6
2019-04-07T16:49:36.841Z,11.1
2019-04-07T16:51:38.498Z,11.4
2019-04-07T16:53:43.289Z,10.9
2019-04-07T16:55:53.001Z,10.9
2019-04-07T16:57:55.570Z,10.6
2019-04-07T16:59:57.003Z,10.9
2019-04-07T17:01:59.970Z,10.4
2019-04-07T17:04:01.599Z,10.8
2019-04-07T17:06:03.096Z,10.1
2019-04-07T17:08:05.554Z,9.6
2019-04-07T17:10:08.062Z,10.1
2019-04-07T17:12:12.639Z,9.9
2019-04-07T17:14:15.066Z,9.8
2019-04-07T17:16:23.861Z,10
2019-04-07T17:18:27.544Z,12.1
2019-04-07T17:20:36.405Z,12.3
2019-04-07T17:22:38.071Z,12.2
2019-04-07T17:24:40.003Z,11.9
2019-04-07T17:26:41.597Z,11.6
2019-04-07T17:28:48.199Z,10.7
2019-04-07T17:30:50.891Z,10.4
2019-04-07T17:32:53.401Z,10.9
2019-04-07T17:34:55.244Z,10.8
2019-04-07T17:36:56.628Z,9.9
2019-04-07T17:38:58.488Z,10.8
2019-04-07T17:41:00.009Z,12.2
2019-04-07T17:43:02.727Z,11.5
2019-04-07T17:45:04.373Z,10.2
2019-04-07T17:47:05.795Z,10.2
2019-04-07T17:49:14.818Z,9.8
2019-04-07T17:51:17.695Z,11.1
2019-04-07T17:53:19.438Z,10.4
2019-04-07T17:55:26.951Z,10.2
2019-04-07T17:57:30.060Z,10
2019-04-07T17:59:32.429Z,10.5
2019-04-07T18:01:33.811Z,9.5
2019-04-07T18:03:42.949Z,10
2019-04-07T18:05:45.414Z,10.6
2019-04-07T18:07:48.731Z,10.8
2019-04-07T18:09:53.280Z,10.2
2019-04-07T18:12:04.972Z,9.4
2019-04-07T18:14:11.566Z,10.5
2019-04-07T18:16:14.001Z,10.1
2019-04-07T18:18:23.564Z,8.9
2019-04-07T18:20:25.328Z,9.2
2019-04-07T18:22:27.528Z,9.1
2019-04-07T18:24:30.801Z,9.8
2019-04-07T18:26:33.009Z,8.9
2019-04-07T18:28:34.361Z,9.6
2019-04-07T18:30:37.015Z,9.3
2019-04-07T18:32:44.155Z,9
2019-04-07T18:34:46.392Z,10.2
2019-04-07T18:36:47.841Z,10.9
2019-04-07T18:38:49.683Z,10.1
2019-04-07T18:40:51.120Z,10.4
2019-04-07T18:42:52.557Z,10.3
2019-04-07T18:44:54.299Z,10.8
2019-04-07T18:46:55.962Z,11.2
2019-04-07T18:49:18.032Z,11.1
2019-04-07T18:51:19.390Z,11.9
2019-04-07T18:53:20.818Z,12.2
2019-04-07T18:55:22.497Z,11.8
2019-04-07T18:57:24.757Z,12.1
2019-04-07T18:59:27.009Z,12.8
2019-04-07T19:01:28.640Z,12.7
2019-04-07T19:03:30.011Z,12.3
2019-04-07T19:05:35.286Z,11.3
2019-04-07T19:07:37.947Z,12.2
2019-04-07T19:09:39.355Z,11.6
2019-04-07T19:11:41.896Z,11.5
2019-04-07T19:13:44.071Z,11.6
2019-04-07T19:15:48.575Z,10.5
2019-04-07T19:17:54.585Z,11
2019-04-07T19:19:59.723Z,11.4
2019-04-07T19:22:04.654Z,11.2
2019-04-07T19:24:10.538Z,11.2
2019-04-07T19:26:18.450Z,11.1
2019-04-07T19:28:20.120Z,11.6
2019-04-07T19:30:24.410Z,11.9
2019-04-07T19:32:27.234Z,12.1
2019-04-07T19:34:31.720Z,12.2
2019-04-07T19:36:34.901Z,12.3
2019-04-07T19:38:38.769Z,12.7
2019-04-07T19:40:41.119Z,12.4
2019-04-07T19:42:48.272Z,13.6
2019-04-07T19:44:53.178Z,13.6
2019-04-07T19:46:58.200Z,12
2019-04-07T19:49:00.946Z,12.7
2019-04-07T19:51:03.286Z,13.3
2019-04-07T19:53:12.972Z,12.6
2019-04-07T19:55:14.571Z,12.5
2019-04-07T19:57:16.008Z,12.9
2019-04-07T19:59:17.525Z,12.8
2019-04-07T20:01:18.863Z,12.3
2019-04-07T20:03:20.295Z,13.3
2019-04-07T20:05:21.645Z,12.3
2019-04-07T20:07:23.053Z,12.9
2019-04-07T20:09:24.485Z,13.9
2019-04-07T20:11:32.568Z,11.3
2019-04-07T20:13:40.829Z,14
2019-04-07T20:15:43.226Z,13.9
2019-04-07T20:17:45.370Z,14.2
2019-04-07T20:19:47.129Z,13
2019-04-07T20:21:55.105Z,13.5
2019-04-07T20:24:04.382Z,14.1
2019-04-07T20:26:06.070Z,12.7
2019-04-07T20:28:07.409Z,13.9
2019-04-07T20:30:16.358Z,13.8
2019-04-07T20:32:18.717Z,13.8
2019-04-07T20:34:21.183Z,14.5
2019-04-07T20:36:26.199Z,14.4
2019-04-07T20:38:29.956Z,15.5
2019-04-07T20:40:37.062Z,14.8
2019-04-07T20:42:40.253Z,14.1
2019-04-07T20:44:42.638Z,14.7
2019-04-07T20:46:44.942Z,15.3
2019-04-07T20:48:46.303Z,15.8
2019-04-07T20:50:48.526Z,14.4
2019-04-07T20:52:50.542Z,13.8
2019-04-07T20:54:51.973Z,15
2019-04-07T20:56:53.417Z,14.6
2019-04-07T20:59:04.544Z,14.1
2019-04-07T21:01:16.546Z,14.9
2019-04-07T21:03:25.494Z,14.5
2019-04-07T21:05:30.584Z,14.4
2019-04-07T21:07:32.279Z,15.7
2019-04-07T21:09:35.969Z,14.5
2019-04-07T21:11:44.207Z,14.9
2019-04-07T21:13:48.285Z,15
2019-04-07T21:15:49.881Z,14.4
2019-04-07T21:17:51.257Z,14.3
2019-04-07T21:19:52.698Z,13.9
2019-04-07T21:21:54.135Z,14.4
2019-04-07T21:23:55.535Z,14.3
2019-04-07T21:25:58.224Z,13.9
2019-04-07T21:28:00.198Z,14.7
2019-04-07T21:30:02.479Z,15.4
2019-04-07T21:32:08.777Z,15.8
2019-04-07T21:34:11.042Z,16.1
2019-04-07T21:36:12.472Z,15.9
2019-04-07T21:38:20.782Z,15.9
2019-04-07T21:40:23.270Z,16.4
2019-04-07T21:42:25.481Z,16.5
2019-04-07T21:44:29.264Z,16.1
2019-04-07T21:46:30.584Z,16
2019-04-07T21:48:32.175Z,16
2019-04-07T21:50:33.611Z,16.1
2019-04-07T21:52:35.710Z,16.7
2019-04-07T21:54:39.112Z,16.9
2019-04-07T21:56:44.905Z,16.9
2019-04-07T21:58:47.575Z,16.9
2019-04-07T22:00:49.719Z,16.6
2019-04-07T22:02:51.147Z,16.6
2019-04-07T22:04:56.891Z,17.6
2019-04-07T22:06:59.694Z,16.2
2019-04-07T22:09:01.109Z,16.4
2019-04-07T22:11:02.505Z,17.2
2019-04-07T22:13:07.004Z,17.1
2019-04-07T22:15:14.140Z,17
2019-04-07T22:17:15.894Z,17.1
2019-04-07T22:19:17.729Z,18.1
2019-04-07T22:21:19.178Z,17.9
2019-04-07T22:23:21.624Z,17.1
2019-04-07T22:25:23.015Z,17.9
2019-04-07T22:27:27.523Z,18.6
2019-04-07T22:29:34.675Z,17.6
2019-04-07T22:31:36.796Z,18.1
2019-04-07T22:33:38.993Z,17.8
2019-04-07T22:35:44.000Z,19
2019-04-07T22:37:50.195Z,17.9
2019-04-07T22:39:52.839Z,17.7
2019-04-07T22:41:57.356Z,18.2
2019-04-07T22:43:59.722Z,19
2019-04-07T22:46:16.817Z,18.9
2019-04-07T22:48:25.856Z,18.5
2019-04-07T22:50:28.506Z,19.2
2019-04-07T22:52:30.132Z,18.6
2019-04-07T22:54:31.534Z,19.4
2019-04-07T22:56:38.318Z,18.7
2019-04-07T22:58:40.982Z,17.8
2019-04-07T23:00:42.550Z,18.4
2019-04-07T23:02:44.524Z,18.9
2019-04-07T23:04:46.876Z,18.9
2019-04-07T23:06:48.241Z,18.3
2019-04-07T23:08:49.668Z,18.6
2019-04-07T23:10:51.100Z,19.2
2019-04-07T23:12:52.436Z,19.2
2019-04-07T23:14:53.887Z,20.1
2019-04-07T23:16:56.336Z,20
2019-04-07T23:18:58.423Z,19.3
2019-04-07T23:21:00.844Z,19.4
2019-04-07T23:23:02.809Z,19.7
2019-04-07T23:25:04.116Z,18.8
2019-04-07T23:27:06.269Z,19.8
2019-04-07T23:29:07.992Z,19.4
2019-04-07T23:31:09.763Z,19.5
2019-04-07T23:33:11.146Z,19.7
2019-04-07T23:35:12.587Z,18.9
2019-04-07T23:37:14.594Z,19.4
2019-04-07T23:41:18.250Z,20.1
2019-04-07T23:43:19.570Z,19.9
2019-04-07T23:45:20.991Z,19.6
2019-04-07T23:47:22.424Z,20
2019-04-07T23:49:23.794Z,19
2019-04-07T23:51:25.234Z,19
2019-04-07T23:53:27.053Z,20
2019-04-07T23:55:28.390Z,19.4
2019-04-07T23:57:29.718Z,19.9
2019-04-07T23:59:31.072Z,19.6
